Time;durP1;ratioP1;P1;durP2;ratioP2;P2;SDS_P1;SDS_P2;PMS_P1;PMS_P2;Temp;Humidity;BMP_temperature;BMP_pressure;BME280_temperature;BME280_humidity;BME280_pressure;Samples;Min_cycle;Max_cycle;Signal;HPM_P1;HPM_P2
2020/12/27 00:02:12;;;;;;;0.10;0.10;;;3.70;99.90;;;;;;5106731;28;20459;-83
2020/12/27 00:04:39;;;;;;;0.00;0.00;;;3.60;99.90;;;;;;5087970;28;20264;-87
2020/12/27 00:07:10;;;;;;;0.10;0.10;;;3.60;99.90;;;;;;5089186;28;20181;-88
2020/12/27 00:09:36;;;;;;;0.00;0.00;;;3.60;99.90;;;;;;5090753;28;20178;-83
2020/12/27 00:12:02;;;;;;;0.27;0.27;;;3.50;99.90;;;;;;5099616;28;20220;-86
2020/12/27 00:14:28;;;;;;;0.23;0.23;;;3.50;99.90;;;;;;5100132;28;20178;-85
2020/12/27 00:16:54;;;;;;;0.10;0.10;;;3.50;99.90;;;;;;5109603;28;20236;-84
2020/12/27 00:19:19;;;;;;;0.13;0.13;;;3.50;99.90;;;;;;5105511;28;20173;-84
2020/12/27 00:21:45;;;;;;;0.20;0.20;;;3.50;99.90;;;;;;5092435;28;20192;-84
2020/12/27 00:24:10;;;;;;;0.27;0.27;;;3.50;99.90;;;;;;5109505;28;20206;-86
2020/12/27 00:26:36;;;;;;;0.40;0.40;;;3.50;99.90;;;;;;5114750;28;20233;-84
2020/12/27 00:29:02;;;;;;;0.20;0.20;;;3.40;99.90;;;;;;5082010;28;20216;-83
2020/12/27 00:31:27;;;;;;;0.63;0.30;;;3.30;99.90;;;;;;5108319;28;20211;-83
2020/12/27 00:33:53;;;;;;;0.30;0.30;;;3.30;99.90;;;;;;5106074;28;20182;-84
2020/12/27 00:36:22;;;;;;;0.10;0.10;;;3.30;99.90;;;;;;5099144;28;20204;-86
2020/12/27 00:38:48;;;;;;;0.20;0.20;;;3.20;99.90;;;;;;5083399;28;20181;-83
2020/12/27 00:41:24;;;;;;;0.10;0.10;;;3.20;99.90;;;;;;5102811;28;20620;-83
2020/12/27 00:43:51;;;;;;;0.10;0.10;;;3.30;99.90;;;;;;5096208;28;20247;-83
2020/12/27 00:46:17;;;;;;;0.20;0.20;;;3.20;99.90;;;;;;5095168;28;20188;-84
2020/12/27 00:48:42;;;;;;;0.00;0.00;;;3.20;99.90;;;;;;5088212;28;20234;-83
2020/12/27 00:51:08;;;;;;;0.10;0.10;;;3.10;99.90;;;;;;5092984;28;20965;-82
2020/12/27 00:53:34;;;;;;;0.10;0.10;;;3.10;99.90;;;;;;5075402;28;20182;-83
2020/12/27 00:56:00;;;;;;;0.30;0.30;;;3.10;99.90;;;;;;5101316;28;20207;-84
2020/12/27 00:58:26;;;;;;;0.10;0.10;;;3.10;99.90;;;;;;5108198;28;20220;-85
2020/12/27 01:00:51;;;;;;;2.00;0.30;;;3.00;99.90;;;;;;5094390;28;20291;-87
2020/12/27 01:03:17;;;;;;;1.50;1.00;;;3.10;99.90;;;;;;5097597;28;20213;-83
2020/12/27 01:05:43;;;;;;;0.10;0.10;;;3.10;99.90;;;;;;5096090;28;20258;-84
2020/12/27 01:08:08;;;;;;;0.23;0.23;;;3.20;99.90;;;;;;5117185;28;20184;-83
2020/12/27 01:10:34;;;;;;;0.10;0.10;;;3.20;99.90;;;;;;5085596;28;20188;-85
2020/12/27 01:12:59;;;;;;;0.10;0.10;;;3.20;99.90;;;;;;5107721;28;20670;-84
2020/12/27 01:15:25;;;;;;;0.20;0.20;;;3.20;99.90;;;;;;5087541;28;20234;-85
2020/12/27 01:17:51;;;;;;;0.10;0.10;;;3.20;99.90;;;;;;5100693;28;20189;-85
2020/12/27 01:20:16;;;;;;;0.20;0.20;;;3.20;99.90;;;;;;5085724;28;20213;-84
2020/12/27 01:22:42;;;;;;;0.00;0.00;;;3.20;99.90;;;;;;5102661;28;20219;-83
2020/12/27 01:25:11;;;;;;;0.40;0.30;;;3.30;99.90;;;;;;5084873;28;20178;-88
2020/12/27 01:27:37;;;;;;;2.20;0.43;;;3.20;99.90;;;;;;5090559;28;20188;-84
2020/12/27 01:30:04;;;;;;;0.00;0.00;;;3.20;99.90;;;;;;5109513;28;20226;-83
2020/12/27 01:32:29;;;;;;;0.10;0.10;;;3.20;99.90;;;;;;5099927;28;20835;-84
2020/12/27 01:34:55;;;;;;;0.13;0.13;;;3.20;99.90;;;;;;5102000;28;20271;-84
2020/12/27 01:37:21;;;;;;;0.10;0.10;;;3.20;99.90;;;;;;5096688;28;20738;-86
2020/12/27 01:39:47;;;;;;;0.20;0.20;;;3.30;99.90;;;;;;5085278;28;20386;-86
2020/12/27 01:42:12;;;;;;;0.00;0.00;;;3.20;99.90;;;;;;5077718;28;20224;-83
2020/12/27 01:44:38;;;;;;;0.20;0.20;;;3.30;99.90;;;;;;5083998;28;20658;-84
2020/12/27 01:47:14;;;;;;;0.30;0.30;;;3.30;99.90;;;;;;5091148;28;20193;-86
2020/12/27 01:49:40;;;;;;;0.10;0.10;;;3.40;99.90;;;;;;5098739;28;20180;-86
2020/12/27 01:52:05;;;;;;;0.10;0.10;;;3.40;99.90;;;;;;5104062;28;20216;-84
2020/12/27 01:54:32;;;;;;;0.33;0.20;;;3.40;99.90;;;;;;5100097;28;20241;-85
2020/12/27 01:57:00;;;;;;;0.30;0.30;;;3.40;99.90;;;;;;5099240;28;20205;-85
2020/12/27 01:59:31;;;;;;;0.00;0.00;;;3.40;99.90;;;;;;5096848;28;20180;-85
2020/12/27 02:01:58;;;;;;;0.10;0.10;;;3.40;99.90;;;;;;5091710;28;20201;-83
2020/12/27 02:04:25;;;;;;;0.20;0.20;;;3.40;99.90;;;;;;5117804;28;20180;-85
2020/12/27 02:06:51;;;;;;;1.37;0.20;;;3.40;99.90;;;;;;5099390;28;20193;-83
2020/12/27 02:09:17;;;;;;;0.00;0.00;;;3.50;99.90;;;;;;5099281;28;20652;-83
2020/12/27 02:11:43;;;;;;;0.13;0.13;;;3.40;99.90;;;;;;5103723;28;20204;-84
2020/12/27 02:14:08;;;;;;;0.10;0.10;;;3.30;99.90;;;;;;5099366;28;20190;-85
2020/12/27 02:16:34;;;;;;;0.73;0.73;;;3.10;99.90;;;;;;5076777;28;20209;-83
2020/12/27 02:19:03;;;;;;;0.33;0.23;;;3.10;99.90;;;;;;5102986;28;20633;-84
2020/12/27 02:21:29;;;;;;;0.30;0.30;;;3.00;99.90;;;;;;5085298;28;20282;-83
2020/12/27 02:24:06;;;;;;;0.40;0.40;;;3.00;99.90;;;;;;5098435;28;20196;-83
2020/12/27 02:26:31;;;;;;;0.37;0.37;;;2.90;99.90;;;;;;5108264;28;20185;-88
2020/12/27 02:28:58;;;;;;;0.30;0.30;;;2.90;99.90;;;;;;5112606;28;20274;-83
2020/12/27 02:31:28;;;;;;;0.23;0.23;;;2.90;99.90;;;;;;5094230;28;20226;-84
2020/12/27 02:33:54;;;;;;;0.17;0.17;;;2.90;99.90;;;;;;5116216;28;20187;-85
2020/12/27 02:36:20;;;;;;;0.43;0.20;;;2.80;99.90;;;;;;5095635;28;20203;-83
2020/12/27 02:38:45;;;;;;;0.10;0.10;;;2.70;99.90;;;;;;5100204;28;20183;-84
2020/12/27 02:41:22;;;;;;;0.30;0.30;;;2.80;99.90;;;;;;5105720;28;20266;-83
2020/12/27 02:43:47;;;;;;;0.23;0.23;;;2.80;99.90;;;;;;5105826;28;20176;-84
2020/12/27 02:46:25;;;;;;;1.97;0.93;;;2.80;99.90;;;;;;5097029;28;20189;-83
2020/12/27 02:48:51;;;;;;;0.23;0.23;;;2.70;99.90;;;;;;5097866;28;20183;-83
2020/12/27 02:51:21;;;;;;;0.30;0.30;;;2.60;99.90;;;;;;5077487;28;20248;-84
2020/12/27 02:53:50;;;;;;;0.30;0.30;;;2.60;99.90;;;;;;5102165;28;20207;-84
2020/12/27 02:56:17;;;;;;;0.30;0.30;;;2.60;99.90;;;;;;5090832;28;20208;-83
2020/12/27 02:58:43;;;;;;;0.30;0.30;;;2.50;99.90;;;;;;5094160;28;20264;-83
2020/12/27 03:01:09;;;;;;;0.30;0.30;;;2.50;99.90;;;;;;5092486;28;20826;-83
2020/12/27 03:03:34;;;;;;;0.10;0.10;;;2.50;99.90;;;;;;5084460;28;20181;-86
2020/12/27 03:06:00;;;;;;;0.27;0.27;;;2.40;99.90;;;;;;5079665;28;20185;-86
2020/12/27 03:08:25;;;;;;;0.50;0.50;;;2.40;99.90;;;;;;5082134;28;20192;-85
2020/12/27 03:11:01;;;;;;;0.20;0.20;;;2.50;99.90;;;;;;5080204;28;20212;-83
2020/12/27 03:13:32;;;;;;;0.90;0.23;;;2.50;99.90;;;;;;5096435;28;20173;-83
2020/12/27 03:15:58;;;;;;;0.73;0.40;;;2.50;99.90;;;;;;5080060;28;20205;-84
2020/12/27 03:18:23;;;;;;;0.33;0.33;;;2.50;99.90;;;;;;5078596;28;20250;-84
2020/12/27 03:20:50;;;;;;;0.33;0.33;;;2.50;99.90;;;;;;5092740;28;20196;-83
2020/12/27 03:23:16;;;;;;;0.83;0.50;;;2.50;99.90;;;;;;5109090;28;20186;-84
2020/12/27 03:25:45;;;;;;;0.60;0.60;;;2.50;99.90;;;;;;5093687;28;20205;-84
2020/12/27 03:28:11;;;;;;;0.33;0.33;;;2.60;99.90;;;;;;5095265;28;20230;-84
2020/12/27 03:30:36;;;;;;;0.43;0.43;;;2.40;99.90;;;;;;5093325;28;20181;-86
2020/12/27 03:33:03;;;;;;;0.30;0.30;;;2.50;99.90;;;;;;5079809;28;20200;-85
2020/12/27 03:35:28;;;;;;;0.20;0.20;;;2.60;99.90;;;;;;5093689;28;20188;-83
2020/12/27 03:37:54;;;;;;;0.30;0.30;;;2.60;99.90;;;;;;5080058;28;20181;-84
2020/12/27 03:40:19;;;;;;;0.30;0.30;;;2.60;99.90;;;;;;5085661;28;20176;-83
2020/12/27 03:42:45;;;;;;;0.63;0.40;;;2.60;99.90;;;;;;5101877;28;20659;-84
2020/12/27 03:45:11;;;;;;;0.63;0.47;;;2.70;99.90;;;;;;5097022;28;20181;-83
2020/12/27 03:47:36;;;;;;;0.30;0.30;;;2.60;99.90;;;;;;5112124;28;20211;-83
2020/12/27 03:50:03;;;;;;;0.10;0.10;;;2.70;99.90;;;;;;5087225;28;20213;-83
2020/12/27 03:52:29;;;;;;;0.17;0.17;;;2.60;99.90;;;;;;5078595;28;20213;-88
2020/12/27 03:54:54;;;;;;;0.20;0.20;;;2.60;99.90;;;;;;5088261;28;20247;-84
2020/12/27 03:57:20;;;;;;;0.20;0.20;;;2.70;99.90;;;;;;5087246;28;20216;-84
2020/12/27 03:59:49;;;;;;;0.67;0.40;;;2.70;99.90;;;;;;5095440;28;20259;-85
2020/12/27 04:02:15;;;;;;;0.10;0.10;;;2.70;99.90;;;;;;5080552;28;20208;-84
2020/12/27 04:04:41;;;;;;;0.20;0.20;;;2.80;99.90;;;;;;5095815;28;20179;-86
2020/12/27 04:07:06;;;;;;;1.03;0.60;;;2.90;99.90;;;;;;5098909;28;20231;-83
2020/12/27 04:09:32;;;;;;;1.07;1.07;;;2.90;99.90;;;;;;5074897;28;20544;-89
2020/12/27 04:11:58;;;;;;;0.20;0.20;;;2.90;99.90;;;;;;5079541;28;20215;-83
2020/12/27 04:14:24;;;;;;;0.23;0.23;;;2.90;99.90;;;;;;5099821;28;20218;-83
2020/12/27 04:16:49;;;;;;;0.20;0.20;;;2.90;99.90;;;;;;5099954;28;20616;-84
2020/12/27 04:19:15;;;;;;;0.90;0.53;;;2.90;99.90;;;;;;5086874;28;20181;-85
2020/12/27 04:21:44;;;;;;;1.17;1.07;;;2.90;99.90;;;;;;5089670;28;20204;-84
2020/12/27 04:24:10;;;;;;;0.10;0.10;;;2.70;99.90;;;;;;5097322;28;20172;-83
2020/12/27 04:26:36;;;;;;;0.33;0.33;;;2.80;99.90;;;;;;5093529;28;20230;-85
2020/12/27 04:29:02;;;;;;;0.20;0.20;;;2.90;99.90;;;;;;5083314;28;20665;-84
2020/12/27 04:31:27;;;;;;;0.50;0.30;;;2.90;99.90;;;;;;5098218;28;20212;-84
2020/12/27 04:33:53;;;;;;;0.10;0.10;;;2.80;99.90;;;;;;5080090;28;20178;-83
2020/12/27 04:36:20;;;;;;;0.40;0.40;;;2.80;99.90;;;;;;5086472;28;20213;-83
2020/12/27 04:38:46;;;;;;;0.27;0.27;;;2.70;99.90;;;;;;5083175;28;20191;-85
2020/12/27 04:41:16;;;;;;;0.30;0.30;;;2.60;99.90;;;;;;5084465;28;20219;-85
2020/12/27 04:43:44;;;;;;;0.20;0.20;;;2.70;99.90;;;;;;5096614;28;20184;-84
2020/12/27 04:46:11;;;;;;;0.80;0.57;;;2.70;99.90;;;;;;5084062;28;20189;-86
2020/12/27 04:48:41;;;;;;;0.17;0.17;;;2.80;99.90;;;;;;5094477;28;20175;-83
2020/12/27 04:51:10;;;;;;;0.40;0.20;;;2.70;99.90;;;;;;5116384;28;20188;-84
2020/12/27 04:53:38;;;;;;;0.30;0.20;;;2.60;99.90;;;;;;5096893;28;20231;-84
2020/12/27 04:56:05;;;;;;;0.10;0.10;;;2.60;99.90;;;;;;5087148;28;20208;-86
2020/12/27 04:58:31;;;;;;;0.57;0.57;;;2.80;99.90;;;;;;5098185;28;20173;-84
2020/12/27 05:00:58;;;;;;;0.27;0.27;;;2.70;99.90;;;;;;5100493;28;20235;-83
2020/12/27 05:03:24;;;;;;;1.43;0.83;;;2.70;99.90;;;;;;5092460;28;20179;-88
2020/12/27 05:05:51;;;;;;;0.10;0.10;;;2.60;99.90;;;;;;5099494;28;20184;-86
2020/12/27 05:08:17;;;;;;;0.17;0.17;;;2.50;99.90;;;;;;5086507;28;20215;-83
2020/12/27 05:10:44;;;;;;;0.40;0.40;;;2.50;99.90;;;;;;5080259;28;20351;-84
2020/12/27 05:13:11;;;;;;;0.50;0.40;;;2.50;99.90;;;;;;5097603;28;20183;-81
2020/12/27 05:15:40;;;;;;;0.10;0.10;;;2.50;99.90;;;;;;5101535;28;20184;-85
2020/12/27 05:18:07;;;;;;;0.43;0.43;;;2.50;99.90;;;;;;5087192;28;20184;-85
2020/12/27 05:20:34;;;;;;;0.67;0.67;;;2.50;99.90;;;;;;5079604;28;20199;-86
2020/12/27 05:23:02;;;;;;;0.30;0.30;;;2.40;99.90;;;;;;5091742;28;20645;-84
2020/12/27 05:25:32;;;;;;;0.50;0.50;;;2.40;99.90;;;;;;5101807;28;20676;-83
2020/12/27 05:28:06;;;;;;;0.27;0.27;;;2.40;99.90;;;;;;5093481;28;20185;-85
2020/12/27 05:30:32;;;;;;;0.20;0.20;;;2.30;99.90;;;;;;5110124;28;20728;-85
2020/12/27 05:32:57;;;;;;;0.00;0.00;;;2.40;99.90;;;;;;5103276;28;20172;-83
2020/12/27 05:35:23;;;;;;;0.37;0.23;;;2.40;99.90;;;;;;5084373;28;20559;-84
2020/12/27 05:37:50;;;;;;;0.30;0.30;;;2.40;99.90;;;;;;5097452;28;20203;-85
2020/12/27 05:40:17;;;;;;;0.30;0.30;;;2.40;99.90;;;;;;5079803;28;20201;-83
2020/12/27 05:42:44;;;;;;;0.30;0.30;;;2.40;99.90;;;;;;5096568;28;20204;-84
2020/12/27 05:45:17;;;;;;;0.40;0.40;;;2.40;99.90;;;;;;5100955;28;20181;-83
2020/12/27 05:47:44;;;;;;;0.20;0.20;;;2.40;99.90;;;;;;5110097;28;20261;-84
2020/12/27 05:50:18;;;;;;;0.63;0.63;;;2.50;99.90;;;;;;5091503;28;20280;-84
2020/12/27 05:52:48;;;;;;;0.10;0.10;;;2.40;99.90;;;;;;5078545;28;20207;-84
2020/12/27 05:55:21;;;;;;;0.10;0.10;;;2.30;99.90;;;;;;5109183;28;20263;-83
2020/12/27 05:57:52;;;;;;;0.20;0.20;;;2.30;99.90;;;;;;5095005;28;20205;-84
2020/12/27 06:00:20;;;;;;;0.50;0.50;;;2.30;99.90;;;;;;5089191;28;20267;-84
2020/12/27 06:02:55;;;;;;;0.50;0.50;;;2.30;99.90;;;;;;5099336;28;20228;-83
2020/12/27 06:05:39;;;;;;;0.10;0.10;;;2.30;99.90;;;;;;5081650;28;20192;-86
2020/12/27 06:08:36;;;;;;;0.10;0.10;;;2.30;99.90;;;;;;5093009;28;20824;-84
2020/12/27 06:11:05;;;;;;;0.17;0.17;;;2.30;99.90;;;;;;5070188;28;20608;-83
2020/12/27 06:14:02;;;;;;;0.23;0.23;;;2.30;99.90;;;;;;5098585;28;20606;-83
2020/12/27 06:16:48;;;;;;;0.57;0.33;;;2.20;99.90;;;;;;5091347;28;20215;-83
2020/12/27 06:19:25;;;;;;;0.20;0.20;;;2.20;99.90;;;;;;5073610;28;20196;-85
2020/12/27 06:22:11;;;;;;;0.10;0.10;;;2.20;99.90;;;;;;5098462;28;20207;-86
2020/12/27 06:24:38;;;;;;;0.77;0.63;;;2.20;99.90;;;;;;5111858;28;20645;-84
2020/12/27 06:27:11;;;;;;;0.00;0.00;;;2.20;99.90;;;;;;5091138;28;20656;-85
2020/12/27 06:29:52;;;;;;;0.27;0.27;;;2.20;99.90;;;;;;5101582;28;20180;-84
2020/12/27 06:32:22;;;;;;;0.60;0.60;;;2.20;99.90;;;;;;5082222;28;20299;-85
2020/12/27 06:34:48;;;;;;;0.43;0.43;;;2.20;99.90;;;;;;5103286;27;20177;-85
2020/12/27 06:37:15;;;;;;;1.10;0.60;;;2.20;99.90;;;;;;5102683;28;20214;-84
2020/12/27 06:39:44;;;;;;;0.20;0.20;;;2.10;99.90;;;;;;5097416;28;20177;-85
2020/12/27 06:42:15;;;;;;;0.33;0.30;;;2.10;99.90;;;;;;5087192;28;20218;-85
2020/12/27 06:44:45;;;;;;;0.57;0.27;;;2.20;99.90;;;;;;5097200;28;20183;-86
2020/12/27 06:47:11;;;;;;;0.63;0.57;;;2.10;99.90;;;;;;5098435;28;20192;-86
2020/12/27 06:49:37;;;;;;;1.33;0.40;;;2.10;99.90;;;;;;5102173;28;20602;-87
2020/12/27 06:52:25;;;;;;;0.33;0.30;;;2.10;99.90;;;;;;5102113;28;20222;-87
2020/12/27 06:54:52;;;;;;;0.30;0.30;;;2.10;99.90;;;;;;5087132;28;20708;-86
2020/12/27 06:57:47;;;;;;;0.10;0.10;;;2.10;99.90;;;;;;5078471;28;20250;-88
2020/12/27 07:00:23;;;;;;;0.30;0.30;;;2.10;99.90;;;;;;5079004;28;20712;-86
2020/12/27 07:03:10;;;;;;;0.93;0.50;;;2.20;99.90;;;;;;5088765;28;20185;-83
2020/12/27 07:05:38;;;;;;;1.33;0.53;;;2.10;99.90;;;;;;5095925;28;20197;-84
2020/12/27 07:08:05;;;;;;;0.20;0.20;;;2.10;99.90;;;;;;5085085;28;20232;-84
2020/12/27 07:10:33;;;;;;;5.33;0.77;;;2.10;99.90;;;;;;5075252;28;20182;-86
2020/12/27 07:13:11;;;;;;;0.10;0.10;;;2.10;99.90;;;;;;5083530;28;20315;-87
2020/12/27 07:15:51;;;;;;;1.37;0.40;;;2.10;99.90;;;;;;5090465;28;20655;-86
2020/12/27 07:18:25;;;;;;;0.27;0.27;;;2.20;99.90;;;;;;5099300;28;20187;-87
2020/12/27 07:20:56;;;;;;;0.40;0.40;;;2.20;99.90;;;;;;5091736;28;20291;-88
2020/12/27 07:23:29;;;;;;;0.50;0.50;;;2.30;99.90;;;;;;5099001;28;20167;-83
2020/12/27 07:25:58;;;;;;;0.37;0.37;;;2.30;99.90;;;;;;5099540;28;20260;-84
2020/12/27 07:28:24;;;;;;;0.87;0.30;;;2.30;99.90;;;;;;5088624;28;20185;-90
2020/12/27 07:31:16;;;;;;;1.27;0.33;;;2.40;99.90;;;;;;5081658;28;20220;-84
2020/12/27 07:33:45;;;;;;;0.20;0.20;;;2.50;99.90;;;;;;5094104;28;20805;-84
2020/12/27 07:36:11;;;;;;;0.37;0.20;;;2.40;99.90;;;;;;5090335;28;20197;-84
2020/12/27 07:38:39;;;;;;;0.10;0.10;;;2.50;99.90;;;;;;5081162;28;20684;-85
2020/12/27 07:41:08;;;;;;;0.77;0.60;;;2.40;99.90;;;;;;5086428;28;20221;-84
2020/12/27 07:43:34;;;;;;;0.23;0.23;;;2.40;99.90;;;;;;5102163;28;20177;-85
2020/12/27 07:46:08;;;;;;;0.63;0.63;;;2.50;99.90;;;;;;5088782;28;20732;-85
2020/12/27 07:48:41;;;;;;;0.10;0.10;;;2.40;99.90;;;;;;5094337;28;20217;-86
2020/12/27 07:51:14;;;;;;;0.10;0.10;;;2.40;99.90;;;;;;5088586;28;20612;-86
2020/12/27 07:53:45;;;;;;;0.40;0.40;;;2.40;99.90;;;;;;5091998;28;20179;-88
2020/12/27 07:56:16;;;;;;;0.40;0.40;;;2.40;99.90;;;;;;5089669;28;20628;-83
2020/12/27 07:58:48;;;;;;;0.20;0.20;;;2.40;99.90;;;;;;5084139;28;20181;-83
2020/12/27 08:01:28;;;;;;;0.10;0.10;;;2.40;99.90;;;;;;5083611;28;20216;-83
2020/12/27 08:03:59;;;;;;;0.83;0.83;;;2.40;99.90;;;;;;5102861;28;20682;-87
2020/12/27 08:06:39;;;;;;;0.27;0.27;;;2.40;99.90;;;;;;5092387;28;20644;-84
2020/12/27 08:09:08;;;;;;;0.20;0.20;;;2.40;99.90;;;;;;5103337;28;20177;-84
2020/12/27 08:11:39;;;;;;;0.63;0.63;;;2.30;99.90;;;;;;5079477;28;20232;-83
2020/12/27 08:14:06;;;;;;;0.60;0.40;;;2.40;99.90;;;;;;5093547;28;20182;-85
2020/12/27 08:16:32;;;;;;;0.47;0.47;;;2.40;99.90;;;;;;5114568;27;20208;-85
2020/12/27 08:19:17;;;;;;;0.20;0.20;;;2.40;99.90;;;;;;5105429;28;20656;-83
2020/12/27 08:21:44;;;;;;;0.50;0.20;;;2.40;99.90;;;;;;5100869;28;20196;-83
2020/12/27 08:24:14;;;;;;;0.70;0.60;;;2.50;99.90;;;;;;5106037;28;20172;-83
2020/12/27 08:26:42;;;;;;;0.10;0.10;;;2.50;99.90;;;;;;5101199;28;20176;-84
2020/12/27 08:29:21;;;;;;;0.67;0.47;;;2.60;99.90;;;;;;5108911;28;20197;-83
2020/12/27 08:31:49;;;;;;;0.10;0.10;;;2.60;99.90;;;;;;5093791;28;20212;-84
2020/12/27 08:34:23;;;;;;;0.43;0.43;;;2.60;99.90;;;;;;5092534;28;20698;-83
2020/12/27 08:36:50;;;;;;;0.40;0.40;;;2.60;99.90;;;;;;5095737;28;20238;-83
2020/12/27 08:39:25;;;;;;;0.20;0.20;;;2.60;99.90;;;;;;5103930;28;20179;-86
2020/12/27 08:42:04;;;;;;;0.50;0.50;;;2.60;99.90;;;;;;5088862;28;20211;-84
2020/12/27 08:44:41;;;;;;;0.40;0.40;;;2.60;99.90;;;;;;5078644;28;20192;-85
2020/12/27 08:47:27;;;;;;;0.17;0.17;;;2.70;99.90;;;;;;5087491;28;20189;-83
2020/12/27 08:50:04;;;;;;;0.07;0.07;;;2.70;99.90;;;;;;5082152;28;20568;-84
2020/12/27 08:52:30;;;;;;;0.10;0.10;;;2.70;99.90;;;;;;5097450;28;20252;-85
2020/12/27 08:54:58;;;;;;;0.10;0.10;;;2.70;99.90;;;;;;5087959;28;20189;-84
2020/12/27 08:57:24;;;;;;;1.87;0.57;;;2.70;99.90;;;;;;5092582;28;20569;-84
2020/12/27 09:00:02;;;;;;;0.10;0.10;;;2.70;99.90;;;;;;5088062;28;20191;-83
2020/12/27 09:02:28;;;;;;;0.77;0.30;;;2.70;99.90;;;;;;5099935;28;20245;-83
2020/12/27 09:05:00;;;;;;;0.10;0.10;;;2.70;99.90;;;;;;5118274;28;20167;-84
2020/12/27 09:07:39;;;;;;;0.20;0.20;;;2.70;99.90;;;;;;5114779;28;20184;-83
2020/12/27 09:10:22;;;;;;;0.10;0.10;;;2.80;99.90;;;;;;5085157;28;20189;-83
2020/12/27 09:13:02;;;;;;;0.10;0.10;;;2.80;99.90;;;;;;5084272;28;20184;-83
2020/12/27 09:15:35;;;;;;;0.17;0.17;;;2.80;99.90;;;;;;5093830;28;20188;-85
2020/12/27 09:18:06;;;;;;;0.10;0.10;;;2.80;99.90;;;;;;5089787;28;20237;-84
2020/12/27 09:20:47;;;;;;;0.30;0.30;;;2.90;99.90;;;;;;5109445;28;20188;-84
2020/12/27 09:23:17;;;;;;;0.20;0.20;;;2.80;99.90;;;;;;5083731;28;20226;-84
2020/12/27 09:25:43;;;;;;;0.37;0.37;;;2.80;99.90;;;;;;5092824;28;20177;-87
2020/12/27 09:28:17;;;;;;;0.50;0.33;;;2.80;99.90;;;;;;5101509;28;20739;-85
2020/12/27 09:30:44;;;;;;;0.20;0.20;;;2.90;99.90;;;;;;5078850;28;20200;-82
2020/12/27 09:33:10;;;;;;;0.10;0.10;;;2.90;99.90;;;;;;5090735;28;20182;-85
2020/12/27 09:35:36;;;;;;;0.10;0.10;;;2.90;99.90;;;;;;5085095;28;20533;-85
2020/12/27 09:38:02;;;;;;;0.20;0.20;;;2.90;99.90;;;;;;5076714;28;20181;-85
2020/12/27 09:40:28;;;;;;;0.10;0.10;;;3.00;99.90;;;;;;5092800;28;20556;-85
2020/12/27 09:43:03;;;;;;;0.17;0.17;;;3.00;99.90;;;;;;5093593;28;20187;-84
2020/12/27 09:45:29;;;;;;;0.20;0.20;;;3.00;99.90;;;;;;5094099;28;20172;-83
2020/12/27 09:47:57;;;;;;;0.23;0.20;;;3.00;99.90;;;;;;5079766;28;20211;-83
2020/12/27 09:50:37;;;;;;;0.30;0.30;;;3.00;99.90;;;;;;5074298;28;20193;-84
2020/12/27 09:53:04;;;;;;;0.23;0.23;;;3.00;99.90;;;;;;5089550;28;20275;-84
2020/12/27 09:55:30;;;;;;;0.50;0.50;;;3.10;99.90;;;;;;5083549;28;20181;-85
2020/12/27 09:57:56;;;;;;;0.10;0.10;;;3.00;99.90;;;;;;5083687;28;20238;-85
2020/12/27 10:00:22;;;;;;;0.30;0.30;;;3.00;99.90;;;;;;5084658;28;20192;-86
2020/12/27 10:02:50;;;;;;;0.53;0.53;;;3.00;99.90;;;;;;5083646;28;20189;-85
2020/12/27 10:05:15;;;;;;;0.30;0.20;;;3.00;99.90;;;;;;5080885;28;20211;-83
2020/12/27 10:07:42;;;;;;;0.57;0.50;;;3.00;99.90;;;;;;5094304;28;20187;-84
2020/12/27 10:10:10;;;;;;;0.43;0.43;;;2.90;99.90;;;;;;5098925;28;20239;-87
2020/12/27 10:12:35;;;;;;;0.23;0.23;;;2.90;99.90;;;;;;5081196;28;20571;-83
2020/12/27 10:15:06;;;;;;;0.40;0.40;;;2.80;99.90;;;;;;5094517;28;20178;-85
2020/12/27 10:17:31;;;;;;;0.10;0.10;;;2.90;99.90;;;;;;5087896;28;20209;-85
2020/12/27 10:19:58;;;;;;;0.17;0.17;;;2.90;99.90;;;;;;5087477;28;20599;-85
2020/12/27 10:22:25;;;;;;;0.10;0.10;;;2.80;99.90;;;;;;5093296;28;20205;-87
2020/12/27 10:24:50;;;;;;;0.10;0.10;;;2.80;99.90;;;;;;5088042;28;20279;-85
2020/12/27 10:27:16;;;;;;;0.23;0.23;;;2.80;99.90;;;;;;5085152;28;20210;-85
2020/12/27 10:29:41;;;;;;;0.10;0.10;;;2.90;99.90;;;;;;5088375;28;20189;-86
2020/12/27 10:32:07;;;;;;;0.10;0.10;;;2.90;99.90;;;;;;5093124;28;20209;-84
2020/12/27 10:34:34;;;;;;;0.27;0.27;;;3.00;99.90;;;;;;5082263;28;20185;-88
2020/12/27 10:37:00;;;;;;;0.27;0.27;;;3.00;99.90;;;;;;5075736;28;20207;-89
2020/12/27 10:39:27;;;;;;;0.73;0.73;;;3.00;99.90;;;;;;5102226;28;20682;-88
2020/12/27 10:41:54;;;;;;;0.10;0.10;;;3.00;99.90;;;;;;5075242;28;20223;-84
2020/12/27 10:44:21;;;;;;;0.00;0.00;;;3.00;99.90;;;;;;5093213;28;20212;-85
2020/12/27 10:46:49;;;;;;;0.40;0.30;;;3.10;99.90;;;;;;5092360;28;20234;-85
2020/12/27 10:49:16;;;;;;;0.30;0.30;;;3.10;99.90;;;;;;5102176;28;20183;-85
2020/12/27 10:51:41;;;;;;;0.10;0.10;;;3.10;99.90;;;;;;5083102;28;20763;-85
2020/12/27 10:54:09;;;;;;;0.10;0.10;;;3.00;99.90;;;;;;5083520;28;20219;-84
2020/12/27 10:56:50;;;;;;;0.20;0.20;;;3.00;99.90;;;;;;5089234;28;20751;-85
2020/12/27 10:59:19;;;;;;;0.53;0.10;;;3.20;99.90;;;;;;5082803;28;20215;-84
2020/12/27 11:01:46;;;;;;;0.10;0.10;;;3.10;99.90;;;;;;5095346;28;20204;-86
2020/12/27 11:04:12;;;;;;;0.20;0.20;;;3.10;99.90;;;;;;5085496;28;20562;-85
2020/12/27 11:06:38;;;;;;;0.13;0.13;;;3.10;99.90;;;;;;5083601;28;20181;-84
2020/12/27 11:09:04;;;;;;;0.10;0.10;;;3.20;99.90;;;;;;5086604;28;20792;-85
2020/12/27 11:11:29;;;;;;;0.00;0.00;;;3.20;99.90;;;;;;5073866;28;20213;-84
2020/12/27 11:13:55;;;;;;;0.00;0.00;;;3.20;99.90;;;;;;5088776;28;20249;-84
2020/12/27 11:16:20;;;;;;;0.20;0.20;;;3.20;99.90;;;;;;5077823;28;20227;-83
2020/12/27 11:18:46;;;;;;;0.17;0.17;;;3.30;99.90;;;;;;5083711;28;20215;-83
2020/12/27 11:21:13;;;;;;;0.63;0.63;;;3.40;99.90;;;;;;5085520;28;20211;-85
2020/12/27 11:23:38;;;;;;;0.10;0.10;;;3.40;99.90;;;;;;5084658;28;20173;-84
2020/12/27 11:26:04;;;;;;;0.10;0.10;;;3.40;99.90;;;;;;5081827;28;20557;-83
2020/12/27 11:28:38;;;;;;;0.20;0.20;;;3.40;99.90;;;;;;5084030;28;20180;-83
2020/12/27 11:31:03;;;;;;;0.10;0.10;;;3.40;99.90;;;;;;5082830;28;20202;-84
2020/12/27 11:33:29;;;;;;;0.10;0.10;;;3.40;99.90;;;;;;5089258;28;20188;-84
2020/12/27 11:35:54;;;;;;;0.10;0.10;;;3.50;99.90;;;;;;5086928;28;20189;-84
2020/12/27 11:38:27;;;;;;;0.13;0.13;;;3.50;99.90;;;;;;5083561;28;20181;-84
2020/12/27 11:40:52;;;;;;;0.20;0.20;;;3.50;99.90;;;;;;5078815;28;20217;-84
2020/12/27 11:43:32;;;;;;;0.30;0.30;;;3.40;99.90;;;;;;5092281;28;20184;-84
2020/12/27 11:45:59;;;;;;;0.00;0.00;;;3.50;99.90;;;;;;5085534;28;20191;-83
2020/12/27 11:48:24;;;;;;;0.10;0.10;;;3.50;99.90;;;;;;5097650;28;20203;-84
2020/12/27 11:50:50;;;;;;;0.17;0.17;;;3.50;99.90;;;;;;5086525;28;20208;-85
2020/12/27 11:53:15;;;;;;;0.30;0.20;;;3.60;99.90;;;;;;5089130;28;20185;-84
2020/12/27 11:55:47;;;;;;;0.10;0.10;;;3.60;99.90;;;;;;5082284;28;20265;-84
2020/12/27 11:58:14;;;;;;;2.27;0.20;;;3.60;99.90;;;;;;5078960;28;20239;-83
2020/12/27 12:00:40;;;;;;;0.10;0.10;;;3.50;99.90;;;;;;5087888;28;20211;-84
2020/12/27 12:03:05;;;;;;;0.00;0.00;;;3.60;99.90;;;;;;5087103;28;20656;-84
2020/12/27 12:05:31;;;;;;;0.10;0.10;;;3.50;99.90;;;;;;5096160;28;20648;-83
2020/12/27 12:07:57;;;;;;;0.43;0.43;;;3.60;99.90;;;;;;5082272;28;20276;-84
2020/12/27 12:10:38;;;;;;;0.10;0.10;;;3.60;99.90;;;;;;5086794;28;20183;-84
2020/12/27 12:13:04;;;;;;;0.10;0.10;;;3.60;99.90;;;;;;5073834;28;20284;-85
2020/12/27 12:15:29;;;;;;;0.13;0.13;;;3.60;99.90;;;;;;5077307;28;20275;-83
2020/12/27 12:17:55;;;;;;;0.10;0.10;;;3.60;99.90;;;;;;5076125;28;20208;-83
2020/12/27 12:23:05;;;;;;;0.10;0.10;;;3.60;99.90;;;;;;5086825;28;20680;-84
2020/12/27 12:25:45;;;;;;;0.10;0.10;;;3.70;99.90;;;;;;5082940;28;20185;-84
2020/12/27 12:28:11;;;;;;;0.10;0.10;;;3.70;99.90;;;;;;5085810;28;20710;-85
2020/12/27 12:30:41;;;;;;;0.50;0.50;;;3.60;99.90;;;;;;5081270;28;20209;-84
2020/12/27 12:33:07;;;;;;;0.10;0.10;;;3.70;99.90;;;;;;5072726;28;20181;-84
2020/12/27 12:35:33;;;;;;;0.50;0.50;;;3.60;99.90;;;;;;5069644;28;20196;-85
2020/12/27 12:37:59;;;;;;;0.17;0.17;;;3.70;99.90;;;;;;5079246;28;20236;-83
2020/12/27 12:40:28;;;;;;;0.10;0.10;;;3.70;99.90;;;;;;5083954;28;20653;-83
2020/12/27 12:42:53;;;;;;;0.10;0.10;;;3.60;99.90;;;;;;5077632;28;20188;-83
2020/12/27 12:45:19;;;;;;;0.10;0.10;;;3.70;99.90;;;;;;5080955;28;20184;-84
2020/12/27 12:47:45;;;;;;;0.10;0.10;;;3.70;99.90;;;;;;5083605;28;20235;-84
2020/12/27 12:50:10;;;;;;;0.13;0.13;;;3.70;99.90;;;;;;5077919;28;20197;-85
2020/12/27 12:52:36;;;;;;;0.10;0.10;;;3.70;99.90;;;;;;5078579;28;20205;-85
2020/12/27 12:55:02;;;;;;;0.13;0.13;;;3.70;99.90;;;;;;5084987;28;20217;-83
2020/12/27 12:57:28;;;;;;;0.20;0.20;;;3.70;99.90;;;;;;5091222;28;20236;-83
2020/12/27 12:59:53;;;;;;;0.20;0.20;;;3.70;99.90;;;;;;5081978;28;20244;-84
2020/12/27 13:02:19;;;;;;;0.10;0.10;;;3.80;99.90;;;;;;5081656;28;20222;-83
2020/12/27 13:04:44;;;;;;;0.00;0.00;;;3.90;99.90;;;;;;5083977;28;20230;-85
2020/12/27 13:07:10;;;;;;;0.00;0.00;;;3.90;99.90;;;;;;5089505;28;20192;-85
2020/12/27 13:09:37;;;;;;;0.10;0.10;;;3.90;99.90;;;;;;5093227;28;20205;-84